createdAt,value
2022-11-24T00:00:17.478Z,80.01
2022-11-24T00:03:19.907Z,80.23
2022-11-24T00:06:22.269Z,79.23
2022-11-24T00:09:24.379Z,79.19
2022-11-24T00:12:26.485Z,79.11
2022-11-24T00:15:28.572Z,78.15
2022-11-24T00:18:31.249Z,79.37
2022-11-24T00:21:33.368Z,79.97
2022-11-24T00:24:35.696Z,80.19
2022-11-24T00:27:37.958Z,78.92
2022-11-24T00:30:40.038Z,77.79
2022-11-24T00:33:42.229Z,77.34
2022-11-24T00:36:44.488Z,78.24
2022-11-24T00:39:46.742Z,79.73
2022-11-24T00:42:48.854Z,82.36
2022-11-24T00:45:51.099Z,84.08
2022-11-24T00:48:53.967Z,82.91
2022-11-24T00:51:56.049Z,81.03
2022-11-24T00:54:58.126Z,80.11
2022-11-24T00:58:00.242Z,81.45
2022-11-24T01:01:16.526Z,81.81
2022-11-24T01:04:18.634Z,81.57
2022-11-24T01:07:20.699Z,81.85
2022-11-24T01:10:22.764Z,81.15
2022-11-24T01:13:24.789Z,81.29
2022-11-24T01:16:29.235Z,83.19
2022-11-24T01:19:31.273Z,84.04
2022-11-24T01:22:34.742Z,83.96
2022-11-24T01:25:40.065Z,84.33
2022-11-24T01:28:46.936Z,84.72
2022-11-24T01:31:49.333Z,85.61
2022-11-24T01:34:51.367Z,86.67
2022-11-24T01:37:53.440Z,86.47
2022-11-24T01:41:07.617Z,83.79
2022-11-24T01:44:30.089Z,81.88
2022-11-24T01:47:37.008Z,83.25
2022-11-24T01:50:41.653Z,82.69
2022-11-24T01:53:49.312Z,84.38
2022-11-24T01:56:54.188Z,84.83
2022-11-24T02:00:17.079Z,83.87
2022-11-24T02:03:23.237Z,85.81
2022-11-24T02:06:30.415Z,85.89
2022-11-24T02:09:45.307Z,85.96
2022-11-24T02:12:48.418Z,85.93
2022-11-24T02:15:50.552Z,84.95
2022-11-24T02:18:52.726Z,83.78
2022-11-24T02:21:54.779Z,84.64
2022-11-24T02:25:08.958Z,84.70
2022-11-24T02:28:15.062Z,84.17
2022-11-24T02:31:17.218Z,84.19
2022-11-24T02:34:20.598Z,83.64
2022-11-24T02:37:22.618Z,84.19
2022-11-24T02:40:27.713Z,83.74
2022-11-24T02:43:32.385Z,83.21
2022-11-24T02:46:34.441Z,83.67
2022-11-24T02:49:36.759Z,83.18
2022-11-24T02:52:38.809Z,82.59
2022-11-24T02:55:40.909Z,82.04
2022-11-24T02:58:42.938Z,80.96
2022-11-24T03:01:45.011Z,81.22
2022-11-24T03:04:47.097Z,80.60
2022-11-24T03:07:49.247Z,81.82
2022-11-24T03:10:51.350Z,83.20
2022-11-24T03:13:53.401Z,82.77
2022-11-24T03:16:55.458Z,82.08
2022-11-24T03:20:03.001Z,81.85
2022-11-24T03:23:06.531Z,81.94
2022-11-24T03:26:10.407Z,80.51
2022-11-24T03:29:12.495Z,79.30
2022-11-24T03:32:14.525Z,80.13
2022-11-24T03:35:16.702Z,81.54
2022-11-24T03:38:19.386Z,82.01
2022-11-24T03:41:21.459Z,80.45
2022-11-24T03:44:23.486Z,81.36
2022-11-24T03:47:25.547Z,82.03
2022-11-24T03:50:27.592Z,81.98
2022-11-24T03:53:31.178Z,83.41
2022-11-24T03:56:33.323Z,84.91
2022-11-24T03:59:35.415Z,79.38
2022-11-24T04:02:38.256Z,79.07
2022-11-24T04:05:40.482Z,77.61
2022-11-24T04:08:42.520Z,77.45
2022-11-24T04:12:04.938Z,78.33
2022-11-24T04:15:07.517Z,79.02
2022-11-24T04:18:10.504Z,78.77
2022-11-24T04:24:32.875Z,79.43
2022-11-24T04:27:36.089Z,78.56
2022-11-24T04:30:40.246Z,78.52
2022-11-24T04:33:42.310Z,77.42
2022-11-24T04:36:44.369Z,77.81
2022-11-24T04:39:46.464Z,77.18
2022-11-24T04:42:55.735Z,76.36
2022-11-24T04:46:00.861Z,77.99
2022-11-24T04:49:03.050Z,78.97
2022-11-24T04:52:05.182Z,78.73
2022-11-24T04:55:08.276Z,78.35
2022-11-24T04:58:13.169Z,78.22
2022-11-24T05:01:15.448Z,77.65
2022-11-24T05:04:18.866Z,77.07
2022-11-24T05:07:21.034Z,76.15
2022-11-24T05:10:35.135Z,76.34
2022-11-24T05:13:37.228Z,76.63
2022-11-24T05:16:39.334Z,76.62
2022-11-24T05:19:41.498Z,79.13
2022-11-24T05:22:43.756Z,77.08
2022-11-24T05:25:47.741Z,79.69
2022-11-24T05:28:50.108Z,78.50
2022-11-24T05:31:52.222Z,77.94
2022-11-24T05:34:54.689Z,78.22
2022-11-24T05:37:58.665Z,80.93
2022-11-24T05:41:04.908Z,79.73
2022-11-24T05:44:07.050Z,78.54
2022-11-24T05:47:09.204Z,79.29
2022-11-24T05:50:13.036Z,80.49
2022-11-24T05:53:15.104Z,80.68
2022-11-24T05:56:17.220Z,80.27
2022-11-24T05:59:19.414Z,80.39
2022-11-24T06:02:21.641Z,81.43
2022-11-24T06:05:23.848Z,81.03
2022-11-24T06:08:30.920Z,79.74
2022-11-24T06:11:33.362Z,78.38
2022-11-24T06:14:35.897Z,79.50
2022-11-24T06:17:38.592Z,78.65
2022-11-24T06:20:42.134Z,77.94
2022-11-24T06:23:44.330Z,78.63
2022-11-24T06:26:46.455Z,78.96
2022-11-24T06:29:48.569Z,77.75
2022-11-24T06:32:55.495Z,78.28
2022-11-24T06:36:04.837Z,78.83
2022-11-24T06:39:07.303Z,79.16
2022-11-24T06:42:09.396Z,78.17
2022-11-24T06:45:11.627Z,77.99
2022-11-24T06:48:13.708Z,77.46
2022-11-24T06:51:15.970Z,77.83
2022-11-24T06:54:21.037Z,78.17
2022-11-24T06:57:23.125Z,77.19
2022-11-24T07:00:25.280Z,77.08
2022-11-24T07:03:27.493Z,77.68
2022-11-24T07:06:29.575Z,77.82
2022-11-24T07:09:31.693Z,77.83
2022-11-24T07:12:36.853Z,77.26
2022-11-24T07:15:39.076Z,76.96
2022-11-24T07:18:42.227Z,76.58
2022-11-24T07:21:44.275Z,75.39
2022-11-24T07:24:46.317Z,75.48
2022-11-24T07:27:48.368Z,76.38
2022-11-24T07:30:50.444Z,75.56
2022-11-24T07:33:53.703Z,75.83
2022-11-24T07:36:55.949Z,76.06
2022-11-24T07:39:58.034Z,76.15
2022-11-24T07:43:01.511Z,76.40
2022-11-24T07:46:07.579Z,78.22
2022-11-24T07:49:09.650Z,76.54
2022-11-24T07:52:11.687Z,77.74
2022-11-24T07:55:13.857Z,77.53
2022-11-24T07:58:15.890Z,75.60
2022-11-24T08:01:18.341Z,78.43
2022-11-24T08:04:20.466Z,79.47
2022-11-24T08:07:22.645Z,80.04
2022-11-24T08:10:24.765Z,80.08
2022-11-24T08:13:26.773Z,80.81
2022-11-24T08:16:29.029Z,79.63
2022-11-24T08:19:32.310Z,78.43
2022-11-24T08:22:34.390Z,80.24
2022-11-24T08:25:37.033Z,79.40
2022-11-24T08:28:39.142Z,78.31
2022-11-24T08:31:41.219Z,77.92
2022-11-24T08:34:43.311Z,79.11
2022-11-24T08:37:45.588Z,79.49
2022-11-24T08:40:47.675Z,79.92
2022-11-24T08:43:49.731Z,79.36
2022-11-24T08:46:53.586Z,80.01
2022-11-24T08:49:55.602Z,78.81
2022-11-24T08:52:57.693Z,77.61
2022-11-24T08:56:00.765Z,77.44
2022-11-24T08:59:03.217Z,79.11
2022-11-24T09:02:06.197Z,78.96
2022-11-24T09:05:28.804Z,79.63
2022-11-24T09:08:31.196Z,78.92
2022-11-24T09:11:34.331Z,77.98
2022-11-24T09:14:36.539Z,78.40
2022-11-24T09:17:38.675Z,78.46
2022-11-24T09:20:40.939Z,77.10
2022-11-24T09:23:43.358Z,79.23
2022-11-24T09:26:47.619Z,78.34
2022-11-24T09:29:50.002Z,77.86
2022-11-24T09:32:52.049Z,77.91
2022-11-24T09:35:54.117Z,78.52
2022-11-24T09:38:56.277Z,80.12
2022-11-24T09:42:17.253Z,80.77
2022-11-24T09:46:05.540Z,80.42
2022-11-24T09:49:34.212Z,81.08
2022-11-24T09:53:01.788Z,82.18
2022-11-24T09:56:22.541Z,81.93
2022-11-24T09:59:25.148Z,82.45
2022-11-24T10:02:27.322Z,82.86
2022-11-24T10:05:29.846Z,83.50
2022-11-24T10:08:54.313Z,83.42
2022-11-24T10:12:05.502Z,84.50
2022-11-24T10:15:39.710Z,84.73
2022-11-24T10:19:16.593Z,85.46
2022-11-24T10:22:52.389Z,85.87
2022-11-24T10:25:59.048Z,85.12
2022-11-24T10:29:01.840Z,84.76
2022-11-24T10:32:07.776Z,85.66
2022-11-24T10:35:18.826Z,84.75
2022-11-24T10:38:29.917Z,83.48
2022-11-24T10:42:02.950Z,84.00
2022-11-24T10:45:12.120Z,83.09
2022-11-24T10:48:25.626Z,83.77
2022-11-24T10:52:08.648Z,81.96
2022-11-24T10:55:10.871Z,83.08
2022-11-24T10:58:16.559Z,81.96
2022-11-24T11:01:21.250Z,83.64
2022-11-24T11:04:43.684Z,83.64
2022-11-24T11:07:45.775Z,85.03
2022-11-24T11:10:50.517Z,84.47
2022-11-24T11:14:01.672Z,84.33
2022-11-24T11:17:36.449Z,86.14
2022-11-24T11:20:38.509Z,85.46
2022-11-24T11:23:40.594Z,85.40
2022-11-24T11:26:42.895Z,86.25
2022-11-24T11:36:51.885Z,85.03
2022-11-24T11:39:55.005Z,85.35
2022-11-24T11:43:12.106Z,85.31
2022-11-24T11:46:17.677Z,84.37
2022-11-24T11:49:19.925Z,84.43
2022-11-24T11:52:32.652Z,85.02
2022-11-24T11:56:12.826Z,85.02
2022-11-24T11:59:32.979Z,85.63
2022-11-24T12:02:54.381Z,85.35
2022-11-24T12:06:15.508Z,86.02
2022-11-24T12:09:45.257Z,86.41
2022-11-24T12:13:08.234Z,86.08
2022-11-24T12:16:31.106Z,86.76
2022-11-24T12:19:36.215Z,86.74
2022-11-24T12:22:57.759Z,86.42
2022-11-24T12:26:37.910Z,86.97
2022-11-24T12:29:57.826Z,86.75
2022-11-24T12:33:28.480Z,85.83
2022-11-24T12:36:55.269Z,86.72
2022-11-24T12:40:09.234Z,87.21
2022-11-24T12:43:27.316Z,86.82
2022-11-24T12:46:51.993Z,86.97
2022-11-24T12:50:11.381Z,87.43
2022-11-24T12:53:28.663Z,87.87
2022-11-24T12:57:07.608Z,88.07
2022-11-24T13:00:38.424Z,88.37
2022-11-24T13:04:17.265Z,86.81
2022-11-24T13:07:38.020Z,88.34
2022-11-24T13:10:55.895Z,89.09
2022-11-24T13:14:22.688Z,88.71
2022-11-24T13:17:47.622Z,89.35
2022-11-24T13:20:54.295Z,89.81
2022-11-24T13:24:04.480Z,89.75
2022-11-24T13:27:15.865Z,89.52
2022-11-24T13:30:35.934Z,90.57
2022-11-24T13:33:38.525Z,89.66
2022-11-24T13:36:52.758Z,90.22
2022-11-24T13:40:17.949Z,90.36
2022-11-24T13:43:20.203Z,91.24
2022-11-24T13:47:05.753Z,91.03
2022-11-24T13:50:21.609Z,90.22
2022-11-24T13:53:45.344Z,91.78
2022-11-24T13:56:47.460Z,91.20
2022-11-24T13:59:49.610Z,92.52
2022-11-24T14:02:53.207Z,92.29
2022-11-24T14:05:55.300Z,92.43
2022-11-24T14:08:59.662Z,91.65
2022-11-24T14:12:24.081Z,90.65
2022-11-24T14:15:29.457Z,90.96
2022-11-24T14:18:32.942Z,90.60
2022-11-24T14:21:42.060Z,90.29
2022-11-24T14:24:45.570Z,89.30
2022-11-24T14:27:47.865Z,90.28
2022-11-24T14:30:50.143Z,90.56
2022-11-24T14:34:12.876Z,90.89
2022-11-24T14:37:15.082Z,89.98
2022-11-24T14:40:42.695Z,91.36
2022-11-24T14:43:44.754Z,90.97
2022-11-24T14:46:47.210Z,92.91
2022-11-24T14:49:49.503Z,92.91
2022-11-24T14:52:58.191Z,91.96
2022-11-24T14:56:22.733Z,94.64
2022-11-24T14:59:26.800Z,94.25
2022-11-24T15:02:46.257Z,93.49
2022-11-24T15:05:53.028Z,92.52
2022-11-24T15:08:55.237Z,91.30
2022-11-24T15:11:57.255Z,90.41
2022-11-24T15:15:22.614Z,90.36
2022-11-24T15:18:37.914Z,90.05
2022-11-24T15:21:39.954Z,89.12
2022-11-24T15:24:51.800Z,89.08
2022-11-24T15:27:53.863Z,88.50
2022-11-24T15:31:01.380Z,86.92
2022-11-24T15:34:03.481Z,86.26
2022-11-24T15:37:05.526Z,86.79
2022-11-24T15:40:09.327Z,86.33
2022-11-24T15:43:35.541Z,85.62
2022-11-24T15:46:38.792Z,85.44
2022-11-24T15:49:40.953Z,85.67
2022-11-24T15:52:43.188Z,85.65
2022-11-24T15:55:45.355Z,85.16
2022-11-24T15:58:47.367Z,84.34
2022-11-24T16:01:50.726Z,84.88
2022-11-24T16:04:52.990Z,85.36
2022-11-24T16:07:55.075Z,84.32
2022-11-24T16:10:57.210Z,85.03
2022-11-24T16:13:59.352Z,83.71
2022-11-24T16:17:01.507Z,84.61
2022-11-24T16:20:04.132Z,83.04
2022-11-24T16:23:06.498Z,84.11
2022-11-24T16:26:09.369Z,83.33
2022-11-24T16:29:11.502Z,83.91
2022-11-24T16:32:13.555Z,83.16
2022-11-24T16:35:16.068Z,82.28
2022-11-24T16:38:19.145Z,82.83
2022-11-24T16:41:21.842Z,84.04
2022-11-24T16:44:23.868Z,82.91
2022-11-24T16:47:26.046Z,82.55
2022-11-24T16:50:28.130Z,82.23
2022-11-24T16:53:30.145Z,82.22
2022-11-24T16:56:32.383Z,80.96
2022-11-24T16:59:34.638Z,79.94
2022-11-24T17:02:36.833Z,80.80
2022-11-24T17:05:38.893Z,82.11
2022-11-24T17:08:41.372Z,83.54
2022-11-24T17:11:43.429Z,83.99
2022-11-24T17:15:03.097Z,83.23
2022-11-24T17:18:23.997Z,83.87
2022-11-24T17:21:27.956Z,84.34
2022-11-24T17:24:30.052Z,84.06
2022-11-24T17:27:32.200Z,84.74
2022-11-24T17:30:34.249Z,84.97
2022-11-24T17:33:36.410Z,83.24
2022-11-24T17:36:39.700Z,84.02
2022-11-24T17:39:42.372Z,82.75
2022-11-24T17:42:45.353Z,84.49
2022-11-24T17:45:56.872Z,82.58
2022-11-24T17:48:58.978Z,82.32
2022-11-24T17:52:01.026Z,83.54
2022-11-24T17:55:03.272Z,83.39
2022-11-24T17:58:05.397Z,83.92
2022-11-24T18:01:07.705Z,83.72
2022-11-24T18:04:09.782Z,82.83
2022-11-24T18:07:11.889Z,82.58
2022-11-24T18:10:14.035Z,82.39
2022-11-24T18:13:34.247Z,81.69
2022-11-24T18:16:38.194Z,80.75
2022-11-24T18:19:40.289Z,81.19
2022-11-24T18:23:04.500Z,81.82
2022-11-24T18:26:05.592Z,81.01
2022-11-24T18:29:08.053Z,80.92
2022-11-24T18:32:10.218Z,81.12
2022-11-24T18:35:12.443Z,80.70
2022-11-24T18:38:14.526Z,80.53
2022-11-24T18:41:16.748Z,79.33
2022-11-24T18:44:18.945Z,79.72
2022-11-24T18:47:21.013Z,80.75
2022-11-24T18:50:23.140Z,80.21
2022-11-24T18:53:26.620Z,80.10
2022-11-24T18:56:29.179Z,80.42
2022-11-24T18:59:31.267Z,79.67
2022-11-24T19:02:33.590Z,80.54
2022-11-24T19:05:35.729Z,79.08
2022-11-24T19:08:37.903Z,79.14
2022-11-24T19:11:42.004Z,79.13
2022-11-24T19:14:44.113Z,79.40
2022-11-24T19:17:47.430Z,77.89
2022-11-24T19:20:49.654Z,79.05
2022-11-24T19:23:51.686Z,78.74
2022-11-24T19:26:54.466Z,78.69
2022-11-24T19:29:56.677Z,78.77
2022-11-24T19:32:58.813Z,79.14
2022-11-24T19:36:03.040Z,80.44
2022-11-24T19:39:05.440Z,79.68
2022-11-24T19:42:07.662Z,80.12
2022-11-24T19:45:10.850Z,80.27
2022-11-24T19:48:13.022Z,80.33
2022-11-24T19:51:20.767Z,80.31
2022-11-24T19:54:22.877Z,80.02
2022-11-24T19:57:24.946Z,80.60
2022-11-24T20:00:30.663Z,79.87
2022-11-24T20:03:34.790Z,80.09
2022-11-24T20:06:42.598Z,80.77
2022-11-24T20:09:44.557Z,80.59
2022-11-24T20:12:49.715Z,79.93
2022-11-24T20:15:51.735Z,80.99
2022-11-24T20:18:55.245Z,81.76
2022-11-24T20:21:57.303Z,80.83
2022-11-24T20:24:59.413Z,81.79
2022-11-24T20:28:01.477Z,81.95
2022-11-24T20:31:07.476Z,80.54
2022-11-24T20:34:09.714Z,80.61
2022-11-24T20:37:13.573Z,78.92
2022-11-24T20:40:15.715Z,78.42
2022-11-24T20:43:17.745Z,77.82
2022-11-24T20:46:21.698Z,76.49
2022-11-24T20:49:23.810Z,75.90
2022-11-24T20:52:25.881Z,75.03
2022-11-24T20:55:27.942Z,74.36
2022-11-24T20:58:30.231Z,76.24
2022-11-24T21:01:40.972Z,75.32
2022-11-24T21:04:43.012Z,77.68
2022-11-24T21:07:45.110Z,77.61
2022-11-24T21:10:57.124Z,76.93
2022-11-24T21:13:59.414Z,77.23
2022-11-24T21:17:01.610Z,77.27
2022-11-24T21:20:03.931Z,81.72
2022-11-24T21:23:05.992Z,83.20
2022-11-24T21:26:11.681Z,84.47
2022-11-24T21:29:23.316Z,84.25
2022-11-24T21:32:26.560Z,83.33
2022-11-24T21:35:28.661Z,83.96
2022-11-24T21:38:30.942Z,83.75
2022-11-24T21:41:33.712Z,83.93
2022-11-24T21:44:36.976Z,84.47
2022-11-24T21:47:39.252Z,83.28
2022-11-24T21:50:41.295Z,82.86
2022-11-24T21:53:44.312Z,82.80
2022-11-24T21:56:46.385Z,82.48
2022-11-24T21:59:48.626Z,81.76
2022-11-24T22:02:50.775Z,80.83
2022-11-24T22:05:57.630Z,80.38
2022-11-24T22:08:59.684Z,79.48
2022-11-24T22:12:02.059Z,79.67
2022-11-24T22:15:04.617Z,79.88
2022-11-24T22:18:06.652Z,80.79
2022-11-24T22:21:14.834Z,81.03
2022-11-24T22:24:16.974Z,80.01
2022-11-24T22:27:19.168Z,81.06
2022-11-24T22:30:21.222Z,81.64
2022-11-24T22:33:23.389Z,82.45
2022-11-24T22:36:28.218Z,83.44
2022-11-24T22:39:30.268Z,82.66
2022-11-24T22:42:32.428Z,82.86
2022-11-24T22:45:35.700Z,83.95
2022-11-24T22:48:38.241Z,83.97
2022-11-24T22:51:40.421Z,84.69
2022-11-24T22:54:42.580Z,85.56
2022-11-24T22:57:48.154Z,85.72
2022-11-24T23:00:50.516Z,86.39
2022-11-24T23:03:54.631Z,85.37
2022-11-24T23:06:56.789Z,86.39
2022-11-24T23:09:58.829Z,86.75
2022-11-24T23:13:00.876Z,86.64
2022-11-24T23:16:07.452Z,86.72
2022-11-24T23:19:09.632Z,87.11
2022-11-24T23:22:11.801Z,86.53
2022-11-24T23:25:13.927Z,86.98
2022-11-24T23:28:16.012Z,87.54
2022-11-24T23:31:20.771Z,87.40
2022-11-24T23:34:22.880Z,87.71
2022-11-24T23:37:39.330Z,86.20
2022-11-24T23:40:47.005Z,87.09
2022-11-24T23:43:49.120Z,87.29
2022-11-24T23:46:51.244Z,86.63
2022-11-24T23:49:53.308Z,87.05
2022-11-24T23:52:55.520Z,86.07
2022-11-24T23:55:57.688Z,84.95
2022-11-24T23:59:00.769Z,85.48
